Time;durP1;ratioP1;P1;durP2;ratioP2;P2;SDS_P1;SDS_P2;PMS_P1;PMS_P2;Temp;Humidity;BMP_temperature;BMP_pressure;BME280_temperature;BME280_humidity;BME280_pressure;Samples;Min_cycle;Max_cycle;Signal;HPM_P1;HPM_P2
2023/03/03 00:01:27;;;;;;;35.83;30.13;;;5.50;47.20;;;;;;5038820;28;20170;-41
2023/03/03 00:03:53;;;;;;;35.10;28.57;;;5.50;48.40;;;;;;5037484;28;20177;-43
2023/03/03 00:06:19;;;;;;;34.30;28.23;;;5.50;43.30;;;;;;5038951;28;20406;-42
2023/03/03 00:08:45;;;;;;;34.87;27.70;;;5.50;38.90;;;;;;5038139;28;21066;-42
2023/03/03 00:11:12;;;;;;;36.70;30.70;;;5.50;36.70;;;;;;5037191;28;20421;-42
2023/03/03 00:13:53;;;;;;;36.40;30.53;;;5.50;40.80;;;;;;5036087;28;20525;-42
2023/03/03 00:16:29;;;;;;;37.90;29.63;;;5.50;47.80;;;;;;5035903;28;20474;-41
2023/03/03 00:18:55;;;;;;;38.67;28.80;;;5.50;46.90;;;;;;5037181;28;20464;-42
2023/03/03 00:21:27;;;;;;;36.20;29.67;;;5.50;48.20;;;;;;5035733;28;20414;-41
2023/03/03 00:24:12;;;;;;;36.07;28.23;;;5.50;57.90;;;;;;5036517;28;20762;-41
2023/03/03 00:26:38;;;;;;;37.47;28.47;;;5.50;73.90;;;;;;5036951;28;20467;-41
2023/03/03 00:29:30;;;;;;;38.20;28.27;;;5.40;84.30;;;;;;5036299;28;20476;-42
2023/03/03 00:32:25;;;;;;;36.63;28.23;;;5.40;86.30;;;;;;5021681;28;20452;-41
2023/03/03 00:34:53;;;;;;;35.57;28.23;;;5.40;89.00;;;;;;5037261;28;20439;-42
2023/03/03 00:37:33;;;;;;;33.97;27.50;;;5.40;93.50;;;;;;5037371;28;20417;-41
2023/03/03 00:40:23;;;;;;;36.33;28.43;;;5.40;97.30;;;;;;5036552;28;20524;-43
2023/03/03 00:42:54;;;;;;;36.93;27.23;;;5.40;99.90;;;;;;5035829;28;20687;-42
2023/03/03 00:45:40;;;;;;;32.97;29.07;;;5.40;99.50;;;;;;5037369;28;20417;-42
2023/03/03 00:48:27;;;;;;;34.37;27.83;;;5.40;95.10;;;;;;5030252;28;20440;-41
2023/03/03 00:50:58;;;;;;;35.70;28.00;;;5.40;93.80;;;;;;5037275;28;20413;-41
2023/03/03 00:53:26;;;;;;;36.20;27.47;;;5.30;92.40;;;;;;5037057;28;20421;-41
2023/03/03 00:55:52;;;;;;;34.83;27.90;;;5.30;94.80;;;;;;5036970;28;20471;-41
2023/03/03 00:58:20;;;;;;;36.27;28.63;;;5.30;98.60;;;;;;5036919;28;20476;-43
2023/03/03 01:00:50;;;;;;;33.00;27.43;;;5.30;98.60;;;;;;5036926;28;20409;-42
2023/03/03 01:03:19;;;;;;;39.93;28.53;;;5.20;98.20;;;;;;5036909;28;20416;-44
2023/03/03 01:05:45;;;;;;;36.50;27.93;;;5.20;99.90;;;;;;5037611;28;20417;-42
2023/03/03 01:08:11;;;;;;;36.00;28.10;;;5.10;99.90;;;;;;5037402;28;20506;-41
2023/03/03 01:10:41;;;;;;;35.57;27.70;;;5.10;99.90;;;;;;5037859;28;20481;-42
2023/03/03 01:13:08;;;;;;;33.73;28.70;;;5.10;99.90;;;;;;5038318;28;20189;-41
2023/03/03 01:15:34;;;;;;;34.50;27.80;;;5.10;99.90;;;;;;5038106;28;20515;-41
2023/03/03 01:17:59;;;;;;;33.30;26.00;;;5.00;99.90;;;;;;5038303;28;20433;-42
2023/03/03 01:20:25;;;;;;;34.63;26.53;;;5.00;99.90;;;;;;5037809;28;20429;-41
2023/03/03 01:22:51;;;;;;;37.07;27.80;;;4.90;99.90;;;;;;5036879;28;20189;-42
2023/03/03 01:25:17;;;;;;;36.17;27.93;;;4.80;99.90;;;;;;5036803;28;20167;-41
2023/03/03 01:27:42;;;;;;;33.60;27.03;;;4.80;99.90;;;;;;5037021;28;20249;-41
2023/03/03 01:30:09;;;;;;;33.27;26.97;;;4.70;99.90;;;;;;5039137;28;20234;-42
2023/03/03 01:32:34;;;;;;;34.20;27.20;;;4.70;99.90;;;;;;5040235;28;20594;-43
2023/03/03 01:35:00;;;;;;;33.40;27.13;;;4.60;99.90;;;;;;5040264;28;20531;-43
2023/03/03 01:37:26;;;;;;;36.90;28.47;;;4.30;99.90;;;;;;5040301;28;20229;-43
2023/03/03 01:39:52;;;;;;;33.77;27.10;;;4.50;99.90;;;;;;5039900;28;20468;-43
2023/03/03 01:42:18;;;;;;;33.67;26.90;;;4.50;99.90;;;;;;5040005;28;20191;-43
2023/03/03 01:44:44;;;;;;;34.60;27.87;;;4.40;99.90;;;;;;5039220;28;20432;-42
2023/03/03 01:47:11;;;;;;;35.80;28.00;;;4.40;99.90;;;;;;5040508;28;20415;-42
2023/03/03 01:49:56;;;;;;;36.03;27.30;;;4.40;99.90;;;;;;5040446;28;20536;-43
2023/03/03 01:52:26;;;;;;;35.50;28.70;;;4.30;99.90;;;;;;5038806;28;20756;-42
2023/03/03 01:54:56;;;;;;;34.17;26.60;;;4.20;99.90;;;;;;5039862;28;20950;-43
2023/03/03 01:57:30;;;;;;;37.70;28.90;;;4.20;99.90;;;;;;5038024;28;20405;-42
2023/03/03 01:59:56;;;;;;;38.87;28.20;;;4.20;99.90;;;;;;5037107;28;20552;-41
2023/03/03 02:02:23;;;;;;;42.00;30.77;;;4.10;99.90;;;;;;5038559;28;20432;-41
2023/03/03 02:04:49;;;;;;;44.07;29.10;;;4.10;99.90;;;;;;5037716;28;20578;-41
2023/03/03 02:07:16;;;;;;;35.90;26.10;;;4.00;99.90;;;;;;5038681;28;20405;-41
2023/03/03 02:09:52;;;;;;;39.50;30.20;;;4.00;99.90;;;;;;5037167;28;20427;-42
2023/03/03 02:12:19;;;;;;;36.07;27.97;;;4.00;99.90;;;;;;5037381;28;20823;-44
2023/03/03 02:14:45;;;;;;;38.97;28.30;;;3.90;99.90;;;;;;5038786;28;20758;-43
2023/03/03 02:17:11;;;;;;;39.43;28.77;;;4.10;99.90;;;;;;5039919;28;20508;-42
2023/03/03 02:20:02;;;;;;;36.00;28.53;;;3.80;99.90;;;;;;5039193;28;20206;-42
2023/03/03 02:22:38;;;;;;;36.57;26.90;;;3.70;99.90;;;;;;5071349;28;20440;-42
2023/03/03 02:25:07;;;;;;;36.70;26.87;;;3.70;99.90;;;;;;5021035;28;20425;-41
2023/03/03 02:27:33;;;;;;;31.87;26.20;;;3.80;99.90;;;;;;5037765;28;20425;-42
2023/03/03 02:30:13;;;;;;;37.53;27.17;;;3.70;1.00;;;;;;5038299;28;20590;-42
2023/03/03 02:32:38;;;;;;;33.73;26.80;;;3.60;99.90;;;;;;5038464;28;20433;-42
2023/03/03 02:35:25;;;;;;;35.03;27.90;;;3.60;99.90;;;;;;5038655;28;20424;-42
2023/03/03 02:37:51;;;;;;;33.20;25.83;;;3.60;99.90;;;;;;5037919;28;20162;-42
2023/03/03 02:40:19;;;;;;;34.90;26.07;;;3.60;99.90;;;;;;5039048;28;20485;-44
2023/03/03 02:42:45;;;;;;;38.03;29.03;;;3.50;99.90;;;;;;5039756;28;20738;-44
2023/03/03 02:45:10;;;;;;;35.33;27.83;;;3.50;99.90;;;;;;5038043;28;20436;-42
2023/03/03 02:47:36;;;;;;;35.90;27.10;;;3.50;99.90;;;;;;5039503;28;20511;-42
2023/03/03 02:50:02;;;;;;;39.13;29.03;;;3.40;99.90;;;;;;5039062;28;20167;-41
2023/03/03 02:52:27;;;;;;;34.93;27.70;;;3.40;99.90;;;;;;5038647;28;20179;-41
2023/03/03 02:54:53;;;;;;;35.87;26.23;;;3.40;99.90;;;;;;5039137;28;20189;-43
2023/03/03 02:57:18;;;;;;;35.83;27.90;;;3.30;1.00;;;;;;5038652;28;20496;-39
2023/03/03 02:59:44;;;;;;;34.80;27.90;;;3.30;1.00;;;;;;5038797;28;20573;-42
2023/03/03 03:02:10;;;;;;;35.53;27.20;;;3.20;1.00;;;;;;5039268;28;20174;-42
2023/03/03 03:04:36;;;;;;;37.80;28.10;;;3.20;1.00;;;;;;5037842;28;20178;-42
2023/03/03 03:07:02;;;;;;;38.50;29.10;;;3.20;1.00;;;;;;5038722;28;20417;-41
2023/03/03 03:09:28;;;;;;;36.70;27.50;;;3.20;1.00;;;;;;5038997;28;20206;-44
2023/03/03 03:11:53;;;;;;;37.00;27.97;;;3.20;1.00;;;;;;5038728;28;20402;-41
2023/03/03 03:14:19;;;;;;;36.87;28.20;;;3.30;1.00;;;;;;5038486;28;20175;-41
2023/03/03 03:16:45;;;;;;;37.10;28.73;;;3.30;1.00;;;;;;5038817;28;20186;-41
2023/03/03 03:19:11;;;;;;;37.20;28.60;;;3.30;1.00;;;;;;5038068;28;20206;-42
2023/03/03 03:21:36;;;;;;;37.27;28.00;;;3.30;1.00;;;;;;5038658;28;20325;-41
2023/03/03 03:24:02;;;;;;;37.33;29.17;;;3.30;1.00;;;;;;5038589;28;20537;-42
2023/03/03 03:26:28;;;;;;;37.80;29.20;;;3.30;1.00;;;;;;5038867;28;20194;-42
2023/03/03 03:28:54;;;;;;;36.83;27.53;;;3.50;1.00;;;;;;5037563;28;20400;-42
2023/03/03 03:31:20;;;;;;;39.13;28.03;;;3.40;1.00;;;;;;5038719;28;20339;-41
2023/03/03 03:33:46;;;;;;;35.47;28.07;;;3.50;1.00;;;;;;5037797;28;20487;-42
2023/03/03 03:36:12;;;;;;;37.63;27.97;;;3.50;1.00;;;;;;5038214;28;20421;-42
2023/03/03 03:38:38;;;;;;;35.40;27.60;;;3.50;1.00;;;;;;5038604;28;20878;-41
2023/03/03 03:41:05;;;;;;;34.97;28.23;;;3.60;1.00;;;;;;5038143;28;20228;-42
2023/03/03 03:43:31;;;;;;;36.97;27.90;;;3.60;1.00;;;;;;5038069;28;20429;-41
2023/03/03 03:45:57;;;;;;;36.00;27.23;;;3.60;1.00;;;;;;5038100;28;20413;-42
2023/03/03 03:48:22;;;;;;;38.87;27.97;;;3.60;1.00;;;;;;5038381;28;20174;-41
2023/03/03 03:50:49;;;;;;;35.73;29.13;;;3.60;1.00;;;;;;5037717;28;20182;-40
2023/03/03 03:53:15;;;;;;;41.17;30.20;;;3.70;1.00;;;;;;5036338;28;20189;-43
2023/03/03 03:55:41;;;;;;;37.23;28.80;;;3.70;1.00;;;;;;5037864;28;20491;-41
2023/03/03 03:58:07;;;;;;;34.67;26.93;;;3.80;7.30;;;;;;5037890;28;20440;-40
2023/03/03 04:00:33;;;;;;;37.50;30.07;;;3.70;1.80;;;;;;5037975;28;20198;-43
2023/03/03 04:02:58;;;;;;;40.47;29.03;;;3.80;15.20;;;;;;5037997;28;20547;-41
2023/03/03 04:05:24;;;;;;;37.10;28.87;;;3.90;1.00;;;;;;5038040;28;20188;-42
2023/03/03 04:07:49;;;;;;;38.07;30.27;;;3.90;1.00;;;;;;5037109;28;20540;-41
2023/03/03 04:10:16;;;;;;;36.00;28.97;;;3.90;1.00;;;;;;5038248;28;20520;-41
2023/03/03 04:12:42;;;;;;;40.67;29.50;;;3.90;1.00;;;;;;5037426;28;20244;-43
2023/03/03 04:15:10;;;;;;;40.73;30.63;;;4.00;1.00;;;;;;5036531;28;20424;-41
2023/03/03 04:17:35;;;;;;;37.23;29.67;;;4.00;8.20;;;;;;5036061;28;20869;-42
2023/03/03 04:20:02;;;;;;;41.07;30.50;;;4.10;17.20;;;;;;5035847;28;20472;-39
2023/03/03 04:22:32;;;;;;;38.90;30.60;;;4.10;28.30;;;;;;5035639;28;20193;-40
2023/03/03 04:24:58;;;;;;;38.83;29.30;;;4.10;8.70;;;;;;5035505;28;20425;-42
2023/03/03 04:27:24;;;;;;;39.70;29.30;;;4.00;11.30;;;;;;5036062;28;20428;-41
2023/03/03 04:29:49;;;;;;;39.63;30.17;;;4.10;41.80;;;;;;5035732;28;20492;-40
2023/03/03 04:32:17;;;;;;;34.70;27.07;;;4.10;99.90;;;;;;5036706;28;20174;-41
2023/03/03 04:34:43;;;;;;;35.13;26.63;;;4.10;91.30;;;;;;5037047;28;20178;-40
2023/03/03 04:37:08;;;;;;;42.00;31.00;;;4.10;1.00;;;;;;5037896;28;20555;-41
2023/03/03 04:39:34;;;;;;;39.37;30.00;;;4.10;1.00;;;;;;5035001;28;20909;-41
2023/03/03 04:41:59;;;;;;;33.87;28.20;;;4.10;1.00;;;;;;5034374;28;20174;-41
2023/03/03 04:44:25;;;;;;;39.47;30.97;;;4.10;1.00;;;;;;5034872;28;20461;-41
2023/03/03 04:46:51;;;;;;;39.10;29.50;;;4.10;1.00;;;;;;5034819;28;20175;-41
2023/03/03 04:49:16;;;;;;;39.50;29.47;;;4.20;1.00;;;;;;5032936;28;20186;-42
2023/03/03 04:51:42;;;;;;;37.37;27.60;;;4.20;1.00;;;;;;5033789;28;20178;-41
2023/03/03 04:54:08;;;;;;;35.80;27.23;;;4.20;1.00;;;;;;5033899;28;20178;-42
2023/03/03 04:56:33;;;;;;;36.47;29.20;;;4.20;1.00;;;;;;5033460;28;20178;-41
2023/03/03 04:58:59;;;;;;;38.50;29.73;;;4.20;1.00;;;;;;5033795;28;20240;-40
2023/03/03 05:01:24;;;;;;;41.70;30.53;;;4.20;1.00;;;;;;5034707;28;20214;-41
2023/03/03 05:03:50;;;;;;;39.53;30.03;;;4.20;1.00;;;;;;5036533;28;20186;-41
2023/03/03 05:06:17;;;;;;;37.10;28.50;;;4.30;1.00;;;;;;5039188;28;20361;-41
2023/03/03 05:08:43;;;;;;;38.57;30.20;;;4.30;1.00;;;;;;5039202;28;20293;-40
2023/03/03 05:11:09;;;;;;;39.13;30.47;;;4.30;1.00;;;;;;5039733;28;20487;-42
2023/03/03 05:13:35;;;;;;;42.83;30.73;;;4.30;1.00;;;;;;5039570;28;20759;-41
2023/03/03 05:16:00;;;;;;;38.50;30.30;;;4.30;1.00;;;;;;5038205;28;20182;-41
2023/03/03 05:18:26;;;;;;;40.40;30.13;;;4.30;1.00;;;;;;5038600;28;20532;-42
2023/03/03 05:20:53;;;;;;;40.83;29.37;;;4.30;1.00;;;;;;5038085;28;20174;-41
2023/03/03 05:23:19;;;;;;;40.10;31.00;;;4.30;1.00;;;;;;5037843;28;20882;-40
2023/03/03 05:25:49;;;;;;;42.07;31.17;;;4.30;1.00;;;;;;5038693;28;20685;-41
2023/03/03 05:28:15;;;;;;;39.90;31.30;;;4.30;1.00;;;;;;5040194;28;20532;-41
2023/03/03 05:30:42;;;;;;;41.13;31.80;;;4.40;1.00;;;;;;5037847;28;20878;-41
2023/03/03 05:33:09;;;;;;;37.70;30.00;;;4.40;1.00;;;;;;5038752;28;20496;-41
2023/03/03 05:35:35;;;;;;;36.30;28.67;;;4.40;1.00;;;;;;5038003;28;20559;-42
2023/03/03 05:38:01;;;;;;;42.73;31.63;;;4.40;1.00;;;;;;5038991;28;20433;-40
2023/03/03 05:40:27;;;;;;;37.93;30.43;;;4.40;1.00;;;;;;5039451;28;20194;-42
2023/03/03 05:42:53;;;;;;;39.53;30.83;;;4.40;1.00;;;;;;5038120;28;20479;-42
2023/03/03 05:45:20;;;;;;;39.07;29.97;;;4.40;1.00;;;;;;5038657;28;20186;-43
2023/03/03 05:47:47;;;;;;;39.60;30.40;;;4.40;1.00;;;;;;5038412;28;20540;-42
2023/03/03 05:50:13;;;;;;;38.63;28.43;;;4.40;1.00;;;;;;5038910;28;20420;-42
2023/03/03 05:52:38;;;;;;;40.63;29.77;;;4.40;1.00;;;;;;5038770;28;20755;-42
2023/03/03 05:55:05;;;;;;;40.40;31.07;;;4.40;1.00;;;;;;5038809;28;20444;-42
2023/03/03 05:57:30;;;;;;;42.60;32.23;;;4.50;1.00;;;;;;5038222;28;20281;-42
2023/03/03 05:59:56;;;;;;;42.10;30.70;;;4.50;1.00;;;;;;5038234;28;20579;-45
2023/03/03 06:02:22;;;;;;;40.47;30.67;;;4.40;1.00;;;;;;5035088;28;20179;-42
2023/03/03 06:04:48;;;;;;;38.30;30.03;;;4.50;1.00;;;;;;5035341;28;20421;-43
2023/03/03 06:07:15;;;;;;;38.10;30.00;;;4.50;1.00;;;;;;5036102;28;20182;-43
2023/03/03 06:09:40;;;;;;;37.87;30.50;;;4.50;1.00;;;;;;5036833;28;20547;-42
2023/03/03 06:12:07;;;;;;;37.83;30.23;;;4.50;1.00;;;;;;5032812;28;20502;-41
2023/03/03 06:14:33;;;;;;;38.43;29.60;;;4.50;1.00;;;;;;5032398;28;20361;-44
2023/03/03 06:16:58;;;;;;;41.50;30.83;;;4.50;1.00;;;;;;5033324;28;20420;-42
2023/03/03 06:19:24;;;;;;;37.60;27.70;;;4.50;1.00;;;;;;5030257;28;20222;-43
2023/03/03 06:21:50;;;;;;;38.73;30.20;;;4.60;1.00;;;;;;5028400;28;20497;-42
2023/03/03 06:24:15;;;;;;;40.73;32.97;;;4.60;1.00;;;;;;5028647;28;20532;-44
2023/03/03 06:26:41;;;;;;;39.70;31.90;;;4.60;1.00;;;;;;5031525;28;20182;-42
2023/03/03 06:29:07;;;;;;;39.77;31.00;;;4.60;1.00;;;;;;5032935;28;20231;-43
2023/03/03 06:31:33;;;;;;;37.47;30.53;;;4.70;1.00;;;;;;5032471;28;20182;-41
2023/03/03 06:33:58;;;;;;;41.70;32.30;;;4.70;1.00;;;;;;5033128;28;20210;-41
2023/03/03 06:36:24;;;;;;;37.50;29.23;;;4.70;1.00;;;;;;5032802;28;20433;-41
2023/03/03 06:38:54;;;;;;;41.00;30.20;;;4.70;1.00;;;;;;5033381;28;20300;-42
2023/03/03 06:41:20;;;;;;;38.60;29.53;;;4.80;1.00;;;;;;5034517;28;20460;-42
2023/03/03 06:43:45;;;;;;;39.57;29.70;;;4.80;1.00;;;;;;5034610;28;20594;-42
2023/03/03 06:46:11;;;;;;;33.80;27.90;;;4.80;1.00;;;;;;5031385;28;20473;-42
2023/03/03 06:48:37;;;;;;;37.33;29.23;;;4.90;1.00;;;;;;5032881;28;20196;-43
2023/03/03 06:51:33;;;;;;;40.40;31.87;;;4.90;1.00;;;;;;5030017;28;20189;-43
2023/03/03 06:54:02;;;;;;;43.90;33.37;;;4.90;1.00;;;;;;5032145;28;20191;-42
2023/03/03 06:56:27;;;;;;;36.70;30.10;;;4.90;1.00;;;;;;5032909;28;20920;-41
2023/03/03 06:58:55;;;;;;;41.50;31.70;;;4.90;1.00;;;;;;5032763;28;20506;-41
2023/03/03 07:01:21;;;;;;;42.23;31.00;;;5.00;1.00;;;;;;5016656;28;20436;-41
2023/03/03 07:03:47;;;;;;;39.97;31.07;;;5.00;1.00;;;;;;5034071;28;20425;-40
2023/03/03 07:06:22;;;;;;;39.67;31.13;;;5.10;1.00;;;;;;5034618;28;20425;-42
2023/03/03 07:08:47;;;;;;;39.73;31.33;;;5.10;99.90;;;;;;5033033;28;20194;-41
2023/03/03 07:11:16;;;;;;;39.37;30.50;;;5.10;99.90;;;;;;5032815;28;20418;-40
2023/03/03 07:13:46;;;;;;;43.03;32.10;;;5.20;99.90;;;;;;5032842;28;20260;-41
2023/03/03 07:16:14;;;;;;;42.07;32.70;;;5.20;99.90;;;;;;5030732;28;20429;-40
2023/03/03 07:18:59;;;;;;;39.33;30.20;;;5.30;99.90;;;;;;5031560;28;20483;-42
2023/03/03 07:21:32;;;;;;;42.00;31.73;;;5.40;99.90;;;;;;5032474;28;20417;-42
2023/03/03 07:23:58;;;;;;;44.67;32.13;;;5.40;99.90;;;;;;5033598;28;20468;-41
2023/03/03 07:26:31;;;;;;;44.17;30.90;;;5.50;99.90;;;;;;5032257;28;20514;-41
2023/03/03 07:29:02;;;;;;;40.13;30.17;;;5.50;99.90;;;;;;5032405;28;20314;-43
2023/03/03 07:31:34;;;;;;;41.80;32.43;;;5.60;99.90;;;;;;5033658;28;20441;-42
2023/03/03 07:34:00;;;;;;;43.73;31.20;;;5.60;99.90;;;;;;5031126;28;20437;-41
2023/03/03 07:36:44;;;;;;;41.33;29.67;;;5.70;99.90;;;;;;5034073;28;20854;-41
2023/03/03 07:39:28;;;;;;;39.50;31.30;;;5.70;99.90;;;;;;5032553;28;20559;-40
2023/03/03 07:42:07;;;;;;;38.40;29.93;;;5.80;95.20;;;;;;5030999;28;20409;-41
2023/03/03 07:44:35;;;;;;;41.07;31.17;;;5.90;65.20;;;;;;5032696;28;20416;-41
2023/03/03 07:47:12;;;;;;;40.40;30.27;;;5.90;42.30;;;;;;5032478;28;20784;-41
2023/03/03 07:49:37;;;;;;;40.13;29.97;;;6.00;24.20;;;;;;5031242;28;20846;-41
2023/03/03 07:52:39;;;;;;;37.20;31.00;;;6.10;8.60;;;;;;5031533;28;20520;-42
2023/03/03 07:55:24;;;;;;;37.50;27.93;;;6.20;1.00;;;;;;5000141;28;20210;-41
2023/03/03 07:57:51;;;;;;;39.03;28.90;;;6.40;1.00;;;;;;5030910;28;20409;-42
2023/03/03 08:00:16;;;;;;;39.50;29.63;;;6.50;1.00;;;;;;5016371;28;20830;-41
2023/03/03 08:03:01;;;;;;;37.67;29.67;;;6.70;1.00;;;;;;5032679;28;20894;-40
2023/03/03 08:05:39;;;;;;;40.30;29.97;;;6.80;1.00;;;;;;5016985;28;20252;-41
2023/03/03 08:08:18;;;;;;;38.27;29.50;;;7.00;1.00;;;;;;5033483;28;20437;-41
2023/03/03 08:10:52;;;;;;;37.23;29.03;;;7.30;1.00;;;;;;5034321;28;20478;-42
2023/03/03 08:13:20;;;;;;;39.17;30.90;;;7.50;1.00;;;;;;5034966;28;20496;-40
2023/03/03 08:15:49;;;;;;;36.27;28.73;;;7.70;1.00;;;;;;5035872;28;20445;-41
2023/03/03 08:18:21;;;;;;;35.60;28.30;;;7.80;1.00;;;;;;5034859;28;20484;-43
2023/03/03 08:20:49;;;;;;;35.37;27.23;;;8.00;1.00;;;;;;5035862;28;20413;-41
2023/03/03 08:23:16;;;;;;;38.97;29.77;;;8.20;1.00;;;;;;5035544;28;20429;-41
2023/03/03 08:25:42;;;;;;;37.77;29.40;;;8.50;1.00;;;;;;5035043;28;20455;-41
2023/03/03 08:28:10;;;;;;;37.70;28.43;;;8.90;1.00;;;;;;5033977;28;20425;-42
2023/03/03 08:30:36;;;;;;;39.97;30.10;;;9.40;1.00;;;;;;5030844;28;20503;-43
2023/03/03 08:33:02;;;;;;;35.27;27.80;;;9.90;1.00;;;;;;5032689;28;20429;-42
2023/03/03 08:35:28;;;;;;;36.87;28.70;;;10.40;1.00;;;;;;5033315;28;20486;-41
2023/03/03 08:37:53;;;;;;;34.90;27.90;;;10.80;1.00;;;;;;5030843;28;20420;-41
2023/03/03 08:40:19;;;;;;;32.93;27.77;;;11.10;1.00;;;;;;5031988;28;20224;-42
2023/03/03 08:42:45;;;;;;;34.47;27.90;;;11.50;1.00;;;;;;5031873;28;20573;-42
2023/03/03 08:45:11;;;;;;;35.73;29.07;;;12.10;1.00;;;;;;5032526;28;20255;-42
2023/03/03 08:47:37;;;;;;;33.83;27.97;;;12.60;1.00;;;;;;5032492;28;20229;-41
2023/03/03 08:50:04;;;;;;;35.17;28.60;;;13.10;1.00;;;;;;5031419;28;20285;-43
2023/03/03 08:52:29;;;;;;;30.53;25.90;;;13.80;1.00;;;;;;5033520;28;20804;-42
2023/03/03 08:54:55;;;;;;;30.30;26.87;;;14.30;1.00;;;;;;5033574;28;20460;-42
2023/03/03 08:57:21;;;;;;;30.03;26.47;;;14.70;1.00;;;;;;5031479;28;20174;-44
2023/03/03 08:59:46;;;;;;;30.47;26.20;;;15.20;1.00;;;;;;5034072;28;20213;-42
2023/03/03 09:02:12;;;;;;;36.40;28.30;;;15.80;1.00;;;;;;5033612;28;20189;-42
2023/03/03 09:04:38;;;;;;;35.87;29.60;;;16.40;1.00;;;;;;5032903;28;20232;-42
2023/03/03 09:07:04;;;;;;;28.17;25.03;;;17.00;1.00;;;;;;5030422;28;20465;-43
2023/03/03 09:09:29;;;;;;;33.13;27.87;;;17.50;1.00;;;;;;5031405;28;20393;-42
2023/03/03 09:12:00;;;;;;;34.67;29.30;;;18.10;1.00;;;;;;5032150;28;20207;-43
2023/03/03 09:14:28;;;;;;;32.87;29.23;;;18.40;1.00;;;;;;5032522;28;20182;-42
2023/03/03 09:16:55;;;;;;;32.53;28.63;;;18.70;1.00;;;;;;5033417;28;20512;-43
2023/03/03 09:19:31;;;;;;;33.50;27.93;;;18.80;1.00;;;;;;5034160;28;20531;-42
2023/03/03 09:22:21;;;;;;;33.63;30.03;;;18.80;99.90;;;;;;5033281;28;20827;-44
2023/03/03 09:24:48;;;;;;;30.60;27.33;;;18.60;99.90;;;;;;5032285;28;20433;-44
2023/03/03 09:27:40;;;;;;;31.03;26.97;;;18.70;99.90;;;;;;5030795;28;20506;-44
2023/03/03 09:30:38;;;;;;;30.47;27.23;;;18.60;99.90;;;;;;5027854;28;20481;-44
2023/03/03 09:33:19;;;;;;;34.40;29.37;;;18.40;99.90;;;;;;5030737;28;20734;-44
2023/03/03 09:35:45;;;;;;;31.40;28.10;;;18.30;99.90;;;;;;5031170;28;20417;-43
2023/03/03 09:38:31;;;;;;;34.83;27.70;;;18.30;99.90;;;;;;5031162;28;20506;-43
2023/03/03 09:41:09;;;;;;;33.80;30.20;;;18.40;99.90;;;;;;5032891;28;20512;-44
2023/03/03 09:44:04;;;;;;;30.83;27.77;;;18.40;99.90;;;;;;5032407;28;20680;-44
2023/03/03 09:46:44;;;;;;;32.83;27.83;;;18.80;99.90;;;;;;5032859;28;20997;-43
2023/03/03 09:49:34;;;;;;;29.40;26.47;;;18.90;99.90;;;;;;5034292;28;20504;-44
2023/03/03 09:52:26;;;;;;;33.20;27.73;;;18.90;99.90;;;;;;5038083;28;20995;-43
2023/03/03 09:55:02;;;;;;;29.63;26.47;;;19.70;99.90;;;;;;5037658;28;20504;-42
2023/03/03 09:57:53;;;;;;;30.50;27.33;;;20.60;99.90;;;;;;5038665;28;20441;-44
2023/03/03 10:00:21;;;;;;;30.87;27.67;;;21.20;99.90;;;;;;5036710;28;20738;-42
2023/03/03 10:03:20;;;;;;;32.17;28.97;;;21.50;99.90;;;;;;5034881;28;20449;-42
2023/03/03 10:05:55;;;;;;;31.57;28.43;;;21.50;99.90;;;;;;5038028;28;20413;-42
2023/03/03 10:08:30;;;;;;;32.17;28.97;;;21.70;99.90;;;;;;5037301;28;20444;-42
2023/03/03 10:11:03;;;;;;;32.83;29.63;;;22.00;99.90;;;;;;5037173;28;20448;-42
2023/03/03 10:13:43;;;;;;;31.37;28.27;;;22.10;99.90;;;;;;5036656;28;20417;-42
2023/03/03 10:16:27;;;;;;;33.03;29.63;;;22.40;99.90;;;;;;5034809;28;20484;-44
2023/03/03 10:19:22;;;;;;;32.03;28.70;;;22.50;99.90;;;;;;5034269;28;20570;-43
2023/03/03 10:22:00;;;;;;;32.60;29.33;;;22.70;99.90;;;;;;5035406;28;20495;-44
2023/03/03 10:25:00;;;;;;;29.13;26.37;;;23.10;99.90;;;;;;5034837;28;20487;-42
2023/03/03 10:27:50;;;;;;;33.20;29.80;;;23.20;99.90;;;;;;5037071;28;20406;-44
2023/03/03 10:30:53;;;;;;;31.37;28.20;;;23.00;99.90;;;;;;5035009;28;20481;-43
2023/03/03 10:33:27;;;;;;;32.30;28.40;;;22.80;99.90;;;;;;5034298;28;20456;-45
2023/03/03 10:36:14;;;;;;;31.70;28.70;;;22.70;99.90;;;;;;5033492;28;20413;-44
2023/03/03 10:38:58;;;;;;;31.40;27.33;;;22.90;99.90;;;;;;5036482;28;20456;-43
2023/03/03 10:41:42;;;;;;;31.23;28.17;;;23.10;99.90;;;;;;5036431;28;20855;-43
2023/03/03 10:44:07;;;;;;;32.50;29.13;;;23.00;99.90;;;;;;5034661;28;20514;-43
2023/03/03 10:46:53;;;;;;;32.07;28.70;;;23.00;99.90;;;;;;5031936;28;20490;-46
2023/03/03 10:49:33;;;;;;;33.00;28.27;;;22.80;99.90;;;;;;5033317;28;20232;-46
2023/03/03 10:52:14;;;;;;;30.53;27.50;;;23.40;99.90;;;;;;5035728;28;20409;-42
2023/03/03 10:55:16;;;;;;;28.90;26.00;;;23.40;99.90;;;;;;5034905;28;20523;-43
2023/03/03 10:57:57;;;;;;;29.63;26.63;;;24.10;99.90;;;;;;5032386;28;20988;-43
2023/03/03 11:00:23;;;;;;;26.20;23.70;;;24.60;99.90;;;;;;5032335;28;20460;-42
2023/03/03 11:03:01;;;;;;;29.70;26.63;;;25.20;99.90;;;;;;5030572;28;20420;-43
2023/03/03 11:05:42;;;;;;;28.57;25.97;;;25.60;99.90;;;;;;5035633;28;20409;-44
2023/03/03 11:08:40;;;;;;;30.00;27.10;;;26.40;99.90;;;;;;5035336;28;20425;-43
2023/03/03 11:11:53;;;;;;;30.77;27.73;;;27.50;1.00;;;;;;5035214;28;20425;-44
2023/03/03 11:14:21;;;;;;;26.10;23.80;;;28.60;99.90;;;;;;4993791;28;20975;-48
2023/03/03 11:17:10;;;;;;;26.17;23.37;;;29.70;1.00;;;;;;4993146;28;20419;-45
2023/03/03 11:19:56;;;;;;;28.73;25.13;;;31.00;1.00;;;;;;5020614;28;20465;-45
2023/03/03 11:22:28;;;;;;;28.13;25.47;;;32.00;1.00;;;;;;5034789;28;20756;-43
2023/03/03 11:25:19;;;;;;;27.37;24.97;;;32.20;1.00;;;;;;5035018;28;20457;-43
2023/03/03 11:28:09;;;;;;;28.33;25.63;;;32.60;1.00;;;;;;5034945;28;20435;-45
2023/03/03 11:31:05;;;;;;;26.23;24.00;;;32.40;1.00;;;;;;5034469;28;20882;-44
2023/03/03 11:33:44;;;;;;;27.70;25.10;;;31.80;99.90;;;;;;5033414;28;20436;-44
2023/03/03 11:36:29;;;;;;;27.10;24.90;;;31.20;99.90;;;;;;5031724;28;20602;-44
2023/03/03 11:39:04;;;;;;;25.67;23.27;;;30.30;99.90;;;;;;5031859;28;20475;-44
2023/03/03 11:41:33;;;;;;;26.17;23.97;;;29.50;99.90;;;;;;5031605;28;20420;-43
2023/03/03 11:44:04;;;;;;;26.17;23.67;;;28.60;99.90;;;;;;5034097;28;20428;-43
2023/03/03 11:46:44;;;;;;;26.70;24.00;;;27.70;99.90;;;;;;5031293;28;20517;-45
2023/03/03 11:49:35;;;;;;;26.57;24.40;;;26.80;99.90;;;;;;5032570;28;20425;-43
2023/03/03 11:52:13;;;;;;;26.60;24.20;;;25.90;99.90;;;;;;5014316;28;20429;-44
2023/03/03 11:55:11;;;;;;;25.80;23.30;;;25.30;99.90;;;;;;5034622;28;20842;-45
2023/03/03 11:57:59;;;;;;;26.10;23.70;;;24.70;99.90;;;;;;5031483;28;20496;-43
2023/03/03 12:00:44;;;;;;;24.97;22.67;;;24.10;99.90;;;;;;5033030;28;20533;-45
2023/03/03 12:03:18;;;;;;;23.33;21.33;;;23.70;99.90;;;;;;5031539;28;20452;-45
2023/03/03 12:06:03;;;;;;;25.27;22.90;;;23.30;99.90;;;;;;5031097;28;20412;-42
2023/03/03 12:08:48;;;;;;;29.53;26.43;;;22.90;99.90;;;;;;5033195;28;20429;-42
2023/03/03 12:11:42;;;;;;;24.43;22.23;;;22.90;99.90;;;;;;5032224;28;20433;-42
2023/03/03 12:14:45;;;;;;;23.57;21.13;;;22.90;99.90;;;;;;5029542;28;20432;-43
2023/03/03 12:17:38;;;;;;;26.40;24.00;;;23.10;99.90;;;;;;5032283;28;20417;-43
2023/03/03 12:20:06;;;;;;;26.33;24.00;;;23.30;99.90;;;;;;5032703;28;20472;-43
2023/03/03 12:22:53;;;;;;;26.27;23.50;;;23.30;99.90;;;;;;5031997;28;20441;-43
2023/03/03 12:25:24;;;;;;;26.00;23.57;;;23.60;99.90;;;;;;5031411;28;20634;-43
2023/03/03 12:28:35;;;;;;;25.83;23.40;;;23.70;99.90;;;;;;5031599;28;20402;-42
2023/03/03 12:31:15;;;;;;;25.07;22.53;;;23.80;99.90;;;;;;5033299;28;21050;-43
2023/03/03 12:33:55;;;;;;;26.20;23.80;;;24.10;99.90;;;;;;5028436;28;20412;-43
2023/03/03 12:36:49;;;;;;;26.10;23.70;;;24.50;99.90;;;;;;5026955;28;20420;-43
2023/03/03 12:39:33;;;;;;;25.80;23.20;;;25.10;99.90;;;;;;5030304;28;20499;-43
2023/03/03 12:42:09;;;;;;;24.60;22.07;;;25.60;99.90;;;;;;5033287;28;20914;-43
2023/03/03 12:44:45;;;;;;;25.97;23.50;;;26.10;99.90;;;;;;5013100;28;20489;-43
2023/03/03 12:47:40;;;;;;;23.97;21.77;;;27.50;99.90;;;;;;5028033;28;20516;-43
2023/03/03 12:50:09;;;;;;;24.53;22.20;;;29.20;99.90;;;;;;5030306;28;20395;-44
2023/03/03 12:53:12;;;;;;;24.13;22.10;;;30.90;99.90;;;;;;5029954;28;20406;-43
2023/03/03 12:55:49;;;;;;;22.20;20.20;;;32.10;99.90;;;;;;5022685;28;20446;-43
2023/03/03 12:58:37;;;;;;;24.73;22.40;;;33.50;99.90;;;;;;5029667;28;20463;-46
2023/03/03 13:01:31;;;;;;;24.20;22.17;;;34.70;1.00;;;;;;5030793;28;20409;-44
2023/03/03 13:04:00;;;;;;;24.80;22.57;;;35.60;1.00;;;;;;5027010;28;21072;-44
2023/03/03 13:06:51;;;;;;;24.93;22.60;;;36.20;1.00;;;;;;5031636;28;20399;-43